Time;durP1;ratioP1;P1;durP2;ratioP2;P2;SDS_P1;SDS_P2;PMS_P1;PMS_P2;Temp;Humidity;BMP_temperature;BMP_pressure;BME280_temperature;BME280_humidity;BME280_pressure;Samples;Min_cycle;Max_cycle;Signal;HPM_P1;HPM_P2
2022/05/20 00:01:48;;;;;;;1319.90;999.90;;;;;;;16.35;100.00;101149.38;5053074;28;20425;-84
2022/05/20 00:04:16;;;;;;;1341.03;999.90;;;;;;;16.30;100.00;101161.28;5054206;28;20447;-86
2022/05/20 00:06:50;;;;;;;1337.05;999.90;;;;;;;16.37;100.00;101171.84;5031435;28;20425;-83
2022/05/20 00:09:23;;;;;;;1364.60;999.90;;;;;;;16.30;100.00;101168.69;5034162;28;20954;-85
2022/05/20 00:11:57;;;;;;;1374.90;999.90;;;;;;;16.40;100.00;101167.69;5036125;28;20474;-83
2022/05/20 00:14:31;;;;;;;1372.68;999.90;;;;;;;16.40;100.00;101168.47;5032606;28;20417;-84
2022/05/20 00:17:01;;;;;;;1367.80;999.90;;;;;;;16.36;100.00;101164.72;5056185;28;20408;-84
2022/05/20 00:19:35;;;;;;;1348.90;999.90;;;;;;;16.37;100.00;101160.06;5051869;28;20412;-83
2022/05/20 00:22:08;;;;;;;1351.60;999.90;;;;;;;16.46;100.00;101175.50;5033978;28;20506;-84
2022/05/20 00:27:24;;;;;;;1318.80;999.90;;;;;;;16.44;100.00;101157.69;5034398;28;20918;-84
2022/05/20 00:29:58;;;;;;;1318.87;999.90;;;;;;;16.47;100.00;101162.56;5044889;28;20418;-83
2022/05/20 00:32:31;;;;;;;1283.40;999.90;;;;;;;16.39;100.00;101163.28;5036841;28;20418;-84
2022/05/20 00:35:05;;;;;;;1256.10;999.90;;;;;;;16.35;100.00;101160.38;5041350;28;20748;-84
2022/05/20 00:37:40;;;;;;;1213.90;999.90;;;;;;;16.26;100.00;101159.44;5036689;28;20432;-84
2022/05/20 00:40:15;;;;;;;1220.57;999.90;;;;;;;16.25;100.00;101160.56;5032048;28;20432;-84
2022/05/20 00:42:50;;;;;;;933.60;870.40;;;;;;;16.16;100.00;101146.75;5053430;28;20429;-84
2022/05/20 00:45:23;;;;;;;483.08;453.77;;;;;;;16.16;100.00;101157.72;5035935;28;20769;-85
2022/05/20 00:47:56;;;;;;;271.52;256.95;;;;;;;16.00;100.00;101139.94;5035172;28;20417;-84
2022/05/20 00:50:25;;;;;;;382.05;359.75;;;;;;;15.94;100.00;101144.72;5051369;28;20424;-84
2022/05/20 00:52:59;;;;;;;355.45;335.25;;;;;;;15.89;100.00;101145.63;5035068;28;20417;-84
2022/05/20 00:55:28;;;;;;;473.08;444.65;;;;;;;15.87;100.00;101147.88;5033385;28;20421;-85
2022/05/20 00:58:07;;;;;;;261.42;247.32;;;;;;;15.76;100.00;101144.47;5034248;28;20418;-84
2022/05/20 01:00:44;;;;;;;192.43;182.00;;;;;;;15.65;100.00;101148.53;5050279;28;20417;-85
2022/05/20 01:03:21;;;;;;;212.13;200.70;;;;;;;15.64;100.00;101155.94;5052757;28;20417;-85
2022/05/20 01:05:56;;;;;;;322.42;304.63;;;;;;;15.62;100.00;101158.19;5022788;28;20427;-85
2022/05/20 01:08:31;;;;;;;210.55;199.15;;;;;;;15.58;100.00;101172.81;5047923;28;20418;-84
2022/05/20 01:11:04;;;;;;;297.33;281.13;;;;;;;15.61;100.00;101177.69;5046513;28;20425;-85
2022/05/20 01:13:40;;;;;;;551.78;517.63;;;;;;;15.58;100.00;101170.88;5050464;28;20417;-85
2022/05/20 01:16:11;;;;;;;457.83;430.42;;;;;;;15.62;100.00;101176.56;5034807;28;20425;-85
2022/05/20 01:18:46;;;;;;;334.52;315.88;;;;;;;15.68;100.00;101171.81;5035778;28;20421;-85
2022/05/20 01:21:20;;;;;;;232.37;219.90;;;;;;;15.68;100.00;101178.09;5038921;28;20448;-85
2022/05/20 01:24:01;;;;;;;298.13;281.83;;;;;;;15.67;100.00;101175.66;5034645;28;20434;-84
2022/05/20 01:26:34;;;;;;;597.83;560.38;;;;;;;15.67;100.00;101181.16;5046216;28;20421;-86
2022/05/20 01:29:07;;;;;;;371.55;350.40;;;;;;;15.62;100.00;101177.38;5038248;28;20421;-85
2022/05/20 01:31:36;;;;;;;250.07;236.60;;;;;;;15.64;100.00;101177.88;5056050;28;20417;-84
2022/05/20 01:34:09;;;;;;;167.77;158.75;;;;;;;15.67;100.00;101192.13;5052418;28;20417;-85
2022/05/20 01:36:37;;;;;;;179.38;169.65;;;;;;;15.65;100.00;101193.22;5055162;28;20417;-85
2022/05/20 01:39:11;;;;;;;162.68;153.85;;;;;;;15.63;100.00;101197.38;5033494;28;20425;-84
2022/05/20 01:41:53;;;;;;;184.90;174.77;;;;;;;15.64;100.00;101202.56;5048272;28;20417;-84
2022/05/20 01:44:26;;;;;;;177.07;167.38;;;;;;;15.40;100.00;101174.50;5028329;28;20806;-86
2022/05/20 01:47:03;;;;;;;192.95;182.30;;;;;;;15.60;100.00;101208.97;5049859;28;20397;-86
2022/05/20 01:49:40;;;;;;;275.02;260.02;;;;;;;15.61;100.00;101202.38;5036688;28;20878;-84
2022/05/20 01:52:20;;;;;;;162.45;153.63;;;;;;;15.44;100.00;101206.50;5037967;28;21074;-84
2022/05/20 01:55:01;;;;;;;139.52;132.13;;;;;;;15.46;100.00;101209.72;5030089;28;20413;-85
2022/05/20 01:57:34;;;;;;;135.25;128.05;;;;;;;15.44;100.00;101203.75;5027517;28;20881;-85
2022/05/20 02:00:08;;;;;;;163.50;154.68;;;;;;;15.26;100.00;101201.84;5037370;28;20424;-85
2022/05/20 02:02:44;;;;;;;539.10;505.60;;;;;;;15.31;100.00;101201.75;5054827;28;20418;-84
2022/05/20 02:05:24;;;;;;;1204.35;999.90;;;;;;;15.03;100.00;101168.75;5050557;28;20425;-85
2022/05/20 02:07:57;;;;;;;1107.50;999.90;;;;;;;15.02;100.00;101197.28;5023064;28;20450;-84
2022/05/20 02:10:36;;;;;;;642.28;600.85;;;;;;;14.95;100.00;101218.75;5036484;28;20425;-86
2022/05/20 02:13:08;;;;;;;324.20;306.08;;;;;;;14.89;100.00;101226.25;5054043;28;20405;-85
2022/05/20 02:15:47;;;;;;;244.85;231.68;;;;;;;14.79;100.00;101229.94;5054646;28;20424;-85
2022/05/20 02:18:28;;;;;;;173.57;164.00;;;;;;;14.73;100.00;101225.63;5042360;28;20889;-84
2022/05/20 02:21:06;;;;;;;130.23;123.35;;;;;;;14.52;100.00;101197.66;5051232;28;20417;-85
2022/05/20 02:23:45;;;;;;;85.32;80.50;;;;;;;14.57;100.00;101214.03;5029389;28;20428;-87
2022/05/20 02:26:24;;;;;;;154.32;146.02;;;;;;;14.64;100.00;101224.69;5051626;28;20428;-86
2022/05/20 02:29:01;;;;;;;137.38;130.10;;;;;;;14.49;100.00;101227.59;5053669;28;20421;-86
2022/05/20 02:31:34;;;;;;;114.65;108.43;;;;;;;14.54;100.00;101230.25;5036414;28;20441;-85
2022/05/20 02:34:02;;;;;;;136.38;129.07;;;;;;;14.38;100.00;101235.91;5033557;28;20431;-86
2022/05/20 02:36:36;;;;;;;183.52;173.43;;;;;;;14.46;100.00;101254.44;5046269;28;20409;-84
2022/05/20 02:39:15;;;;;;;83.88;79.22;;;;;;;14.41;100.00;101251.75;5053900;28;20765;-84
2022/05/20 02:41:46;;;;;;;78.45;74.05;;;;;;;14.15;100.00;101255.88;5029732;28;20417;-83
2022/05/20 02:44:14;;;;;;;41.70;39.28;;;;;;;13.92;100.00;101250.91;5053036;28;20404;-85
2022/05/20 02:46:47;;;;;;;61.90;58.40;;;;;;;13.96;100.00;101267.53;5054027;28;20417;-84
2022/05/20 02:49:21;;;;;;;55.75;52.55;;;;;;;13.86;100.00;101276.66;5052447;28;20421;-84
2022/05/20 02:51:54;;;;;;;59.20;55.80;;;;;;;13.76;100.00;101279.50;5052524;28;20428;-84
2022/05/20 02:54:27;;;;;;;69.63;65.53;;;;;;;13.80;100.00;101277.03;5044864;28;20418;-84
2022/05/20 02:57:03;;;;;;;39.40;37.10;;;;;;;13.60;100.00;101278.81;5031136;28;20462;-83
2022/05/20 03:05:08;;;;;;;22.35;20.95;;;;;;;13.53;100.00;101287.31;5053997;28;20397;-84
2022/05/20 03:07:41;;;;;;;21.33;19.93;;;;;;;13.38;100.00;101284.69;5041538;28;20502;-84
2022/05/20 03:10:14;;;;;;;26.58;24.98;;;;;;;13.37;100.00;101281.16;5036872;28;20424;-84
2022/05/20 03:12:49;;;;;;;35.90;33.80;;;;;;;13.33;100.00;101298.41;5047218;28;20420;-83
2022/05/20 03:15:22;;;;;;;44.70;42.13;;;;;;;13.33;100.00;101306.59;5031490;28;20495;-84
2022/05/20 03:17:55;;;;;;;52.40;49.40;;;;;;;13.25;100.00;101303.34;5029788;28;20425;-84
2022/05/20 03:20:24;;;;;;;64.47;60.88;;;;;;;13.27;100.00;101297.59;5043926;28;20421;-85
2022/05/20 03:22:52;;;;;;;43.45;40.95;;;;;;;13.24;100.00;101299.00;5050012;28;20988;-84
2022/05/20 03:25:21;;;;;;;41.15;38.80;;;;;;;13.20;100.00;101299.81;5035097;28;20782;-85
2022/05/20 03:27:51;;;;;;;39.97;37.65;;;;;;;13.22;100.00;101292.97;5040683;28;20414;-84
2022/05/20 03:30:24;;;;;;;36.35;34.25;;;;;;;13.18;100.00;101291.91;5052624;28;20421;-83
2022/05/20 03:32:53;;;;;;;29.98;28.17;;;;;;;13.18;100.00;101294.63;5051128;28;20417;-83
2022/05/20 03:35:21;;;;;;;28.58;26.77;;;;;;;13.13;100.00;101300.13;5033857;28;20424;-84
2022/05/20 03:37:54;;;;;;;24.47;22.97;;;;;;;13.06;100.00;101313.28;5046916;28;20413;-84
2022/05/20 03:40:22;;;;;;;27.02;25.42;;;;;;;13.08;100.00;101302.91;5046973;28;20912;-82
2022/05/20 03:42:57;;;;;;;23.55;22.05;;;;;;;13.03;100.00;101322.88;5039277;28;20414;-83
2022/05/20 03:45:30;;;;;;;17.05;15.95;;;;;;;12.91;100.00;101327.84;5052042;28;20412;-84
2022/05/20 03:47:59;;;;;;;14.53;13.53;;;;;;;12.83;100.00;101323.78;5034327;28;20755;-82
2022/05/20 03:50:32;;;;;;;15.60;14.52;;;;;;;12.86;100.00;101325.94;5027882;28;20433;-83
2022/05/20 03:53:05;;;;;;;20.93;19.63;;;;;;;12.86;100.00;101325.16;5046136;28;20807;-83
2022/05/20 03:55:38;;;;;;;25.02;23.52;;;;;;;12.84;100.00;101319.13;5037168;28;20436;-83
2022/05/20 03:58:13;;;;;;;23.20;21.70;;;;;;;12.88;100.00;101329.19;5028655;28;20746;-84
2022/05/20 04:03:41;;;;;;;20.85;19.45;;;;;;;12.88;100.00;101336.59;5051116;28;20447;-83
2022/05/20 04:06:15;;;;;;;20.52;19.23;;;;;;;12.75;100.00;101341.56;5038752;28;20425;-83
2022/05/20 04:08:48;;;;;;;26.08;24.48;;;;;;;12.68;100.00;101332.03;5050308;28;20417;-84
2022/05/20 04:11:22;;;;;;;23.63;22.13;;;;;;;12.68;100.00;101337.50;5045520;28;20439;-89
2022/05/20 04:13:56;;;;;;;24.73;23.23;;;;;;;12.73;100.00;101345.66;5042277;28;20415;-84
2022/05/20 04:16:30;;;;;;;21.58;20.20;;;;;;;12.66;100.00;101354.13;5021431;28;20425;-84
2022/05/20 04:19:03;;;;;;;23.90;22.40;;;;;;;12.64;100.00;101348.16;5037807;28;20773;-83
2022/05/20 04:21:37;;;;;;;18.95;17.75;;;;;;;12.60;100.00;101352.53;5036058;28;20440;-84
2022/05/20 04:24:06;;;;;;;14.00;13.00;;;;;;;12.65;100.00;101348.94;5048262;28;20421;-86
2022/05/20 04:26:35;;;;;;;17.83;16.63;;;;;;;12.57;100.00;101350.34;5037659;28;20425;-85
2022/05/20 04:29:09;;;;;;;15.05;14.05;;;;;;;12.56;100.00;101356.91;5050360;28;20420;-86
2022/05/20 04:31:44;;;;;;;13.52;12.63;;;;;;;12.57;100.00;101356.63;5045673;28;20429;-85
2022/05/20 04:34:18;;;;;;;13.67;12.67;;;;;;;12.61;100.00;101345.13;5047439;28;20417;-85
2022/05/20 04:36:46;;;;;;;12.13;11.23;;;;;;;12.61;100.00;101364.25;5045270;28;20413;-84
2022/05/20 04:39:20;;;;;;;9.00;8.20;;;;;;;12.62;100.00;101363.97;5040078;28;20517;-85
2022/05/20 04:47:33;;;;;;;8.10;7.47;;;;;;;12.65;100.00;101363.44;5031680;28;20433;-86
2022/05/20 04:50:02;;;;;;;8.73;8.02;;;;;;;12.78;100.00;101362.03;5048400;28;20413;-82
2022/05/20 04:52:35;;;;;;;9.40;8.60;;;;;;;12.74;100.00;101369.16;5046004;28;20460;-85
2022/05/20 04:55:08;;;;;;;8.37;7.57;;;;;;;12.81;100.00;101368.84;5041826;28;20470;-81
2022/05/20 04:57:46;;;;;;;8.10;7.40;;;;;;;12.77;100.00;101379.50;5033711;28;20436;-85
2022/05/20 05:00:24;;;;;;;6.45;5.85;;;;;;;12.68;100.00;101384.72;5037771;28;20428;-85
2022/05/20 05:02:57;;;;;;;6.88;6.28;;;;;;;12.73;100.00;101386.63;5031755;28;20426;-83
2022/05/20 05:05:30;;;;;;;7.70;7.10;;;;;;;12.62;100.00;101382.28;5048903;28;20418;-87
2022/05/20 05:08:05;;;;;;;8.57;7.88;;;;;;;12.68;100.00;101398.38;5049354;28;20421;-86
2022/05/20 05:10:33;;;;;;;8.73;8.03;;;;;;;12.72;100.00;101396.72;5048008;28;20470;-85
2022/05/20 05:13:08;;;;;;;6.63;6.03;;;;;;;12.79;100.00;101401.91;5049553;28;20416;-85
2022/05/20 05:15:38;;;;;;;7.47;6.88;;;;;;;12.70;100.00;101409.03;5030240;28;20425;-86
2022/05/20 05:18:12;;;;;;;5.30;4.80;;;;;;;12.71;100.00;101407.94;5036310;28;20426;-87
2022/05/20 05:20:47;;;;;;;5.60;5.10;;;;;;;12.79;100.00;101407.38;5043901;28;20422;-89
2022/05/20 05:23:21;;;;;;;7.38;6.68;;;;;;;12.75;100.00;101412.56;5034382;28;20436;-85
2022/05/20 05:25:50;;;;;;;6.38;5.78;;;;;;;12.76;100.00;101413.41;5046663;28;20416;-85
2022/05/20 05:28:18;;;;;;;6.00;5.50;;;;;;;12.75;100.00;101404.38;5031698;28;20440;-83
2022/05/20 05:30:53;;;;;;;6.72;6.13;;;;;;;12.85;100.00;101409.00;5035673;28;20417;-86
2022/05/20 05:33:26;;;;;;;6.80;6.20;;;;;;;12.89;100.00;101412.00;5035222;28;20412;-84
2022/05/20 05:36:00;;;;;;;6.50;5.90;;;;;;;12.96;100.00;101415.25;5035259;28;20409;-87
2022/05/20 05:38:33;;;;;;;7.40;6.80;;;;;;;13.15;100.00;101409.19;5025590;28;20436;-83
2022/05/20 05:41:02;;;;;;;5.85;5.35;;;;;;;12.88;100.00;101396.69;5034301;28;20434;-84
2022/05/20 05:43:36;;;;;;;4.82;4.40;;;;;;;13.04;100.00;101413.88;5034449;28;20480;-86
2022/05/20 05:46:10;;;;;;;5.60;5.10;;;;;;;13.23;100.00;101414.88;5031235;28;20853;-81
2022/05/20 05:48:39;;;;;;;6.28;5.68;;;;;;;13.19;100.00;101421.19;5051327;28;20414;-85
2022/05/20 05:51:12;;;;;;;5.27;4.77;;;;;;;13.37;100.00;101431.53;5034886;28;20429;-85
2022/05/20 05:53:45;;;;;;;4.00;3.60;;;;;;;13.40;100.00;101430.16;5024018;28;20431;-84
2022/05/20 05:56:18;;;;;;;3.75;3.10;;;;;;;13.27;100.00;101426.88;5034366;28;20425;-86
2022/05/20 05:58:52;;;;;;;2.97;2.67;;;;;;;13.31;100.00;101432.59;5050404;28;20421;-85
2022/05/20 06:01:26;;;;;;;3.63;3.00;;;;;;;13.43;100.00;101435.06;5035179;28;20426;-86
2022/05/20 06:04:00;;;;;;;2.80;2.50;;;;;;;13.45;100.00;101424.66;5046536;28;20417;-85
2022/05/20 06:06:33;;;;;;;2.50;2.27;;;;;;;13.45;100.00;101441.06;5048563;28;20425;-86
2022/05/20 06:09:06;;;;;;;2.78;2.45;;;;;;;13.59;100.00;101438.53;5047045;28;20421;-86
2022/05/20 06:11:39;;;;;;;2.17;1.85;;;;;;;13.85;100.00;101449.31;5049011;28;20434;-87
2022/05/20 06:14:13;;;;;;;3.90;2.03;;;;;;;13.82;100.00;101455.38;5049361;28;20423;-84
2022/05/20 06:16:47;;;;;;;2.40;1.80;;;;;;;13.76;100.00;101462.78;5048418;28;20425;-86
2022/05/20 06:19:21;;;;;;;2.78;1.80;;;;;;;13.61;100.00;101461.75;5023268;28;20445;-85
2022/05/20 06:21:49;;;;;;;3.08;1.90;;;;;;;13.88;100.00;101471.47;5050670;28;20414;-81
2022/05/20 06:24:17;;;;;;;2.92;2.30;;;;;;;14.23;100.00;101468.78;5032909;28;20428;-84
2022/05/20 06:26:47;;;;;;;2.72;1.50;;;;;;;13.61;100.00;101469.16;5050961;28;20436;-85
2022/05/20 06:29:20;;;;;;;2.58;1.70;;;;;;;14.31;100.00;101472.81;5050746;28;20417;-83
2022/05/20 06:31:55;;;;;;;1.83;1.50;;;;;;;14.49;100.00;101468.59;5034833;28;20789;-84
2022/05/20 06:34:24;;;;;;;2.70;1.70;;;;;;;14.74;100.00;101484.81;5053091;28;20412;-84
2022/05/20 06:39:52;;;;;;;1.83;1.30;;;;;;;14.81;100.00;101473.50;5047861;28;20417;-86
2022/05/20 06:42:20;;;;;;;1.90;1.35;;;;;;;14.34;100.00;101489.50;5028710;28;20917;-81
2022/05/20 06:44:54;;;;;;;2.38;1.35;;;;;;;14.35;100.00;101482.94;5023219;28;20427;-85
2022/05/20 06:47:28;;;;;;;2.33;1.50;;;;;;;14.67;100.00;101480.78;5043845;28;20447;-85
2022/05/20 06:49:57;;;;;;;3.40;1.80;;;;;;;14.43;100.00;101471.34;5036417;28;20790;-86
2022/05/20 06:52:30;;;;;;;1.83;1.50;;;;;;;14.13;100.00;101428.63;5035860;28;20413;-85
2022/05/20 06:54:58;;;;;;;3.67;1.70;;;;;;;14.14;100.00;101478.69;5025409;28;20422;-84
2022/05/20 06:57:26;;;;;;;3.40;1.80;;;;;;;14.38;100.00;101485.09;5027631;28;20411;-84
2022/05/20 07:00:03;;;;;;;3.97;1.80;;;;;;;14.33;100.00;101487.84;5029470;28;20421;-84
2022/05/20 07:02:32;;;;;;;1.80;1.40;;;;;;;14.65;100.00;101481.03;5050249;28;20418;-83
2022/05/20 07:05:09;;;;;;;4.00;1.70;;;;;;;14.84;100.00;101475.66;5039882;28;20429;-87
2022/05/20 07:07:40;;;;;;;1.75;1.40;;;;;;;14.83;100.00;101470.47;5051213;28;20413;-85
2022/05/20 07:10:11;;;;;;;2.63;1.50;;;;;;;14.84;100.00;101474.88;5046177;28;20413;-85
2022/05/20 07:12:40;;;;;;;2.30;1.60;;;;;;;14.63;100.00;101464.09;5027665;28;20437;-85
2022/05/20 07:15:14;;;;;;;2.42;1.50;;;;;;;14.69;100.00;101462.13;5030796;28;20428;-84
2022/05/20 07:17:47;;;;;;;3.25;1.65;;;;;;;15.20;100.00;101452.53;5051895;28;20890;-85
2022/05/20 07:20:16;;;;;;;3.30;1.60;;;;;;;15.10;100.00;101459.78;5051357;28;20417;-87
2022/05/20 07:22:45;;;;;;;3.20;1.58;;;;;;;15.07;100.00;101443.09;5046769;28;20414;-86
2022/05/20 07:25:14;;;;;;;3.30;1.70;;;;;;;15.46;100.00;101448.38;5048191;28;20419;-87
2022/05/20 07:27:42;;;;;;;3.30;1.80;;;;;;;15.07;100.00;101460.34;5038876;28;20428;-86
2022/05/20 07:30:17;;;;;;;2.67;1.40;;;;;;;14.89;100.00;101466.59;5032217;28;20413;-84
2022/05/20 07:32:47;;;;;;;2.53;1.50;;;;;;;14.56;100.00;101464.41;5028358;28;20441;-88
2022/05/20 07:35:16;;;;;;;3.38;1.55;;;;;;;14.26;100.00;101460.78;5024615;28;20430;-87
2022/05/20 07:37:44;;;;;;;2.97;1.65;;;;;;;14.54;100.00;101447.44;5050427;28;20429;-88
2022/05/20 07:40:13;;;;;;;2.95;1.52;;;;;;;14.76;100.00;101459.84;5043669;28;20420;-87
2022/05/20 07:42:47;;;;;;;4.63;1.80;;;;;;;15.10;100.00;101458.97;5028082;28;20791;-85
2022/05/20 07:45:16;;;;;;;3.63;1.52;;;;;;;14.70;100.00;101428.97;5040212;28;20425;-87
2022/05/20 07:47:51;;;;;;;3.00;1.50;;;;;;;14.63;100.00;101458.63;5034154;28;20420;-85
2022/05/20 07:50:20;;;;;;;4.28;1.50;;;;;;;14.84;100.00;101461.97;5023259;28;20412;-87
2022/05/20 07:55:42;;;;;;;3.47;1.42;;;;;;;15.24;100.00;101432.47;5038659;28;20403;-86
2022/05/20 07:58:14;;;;;;;3.20;1.50;;;;;;;15.38;100.00;101432.56;5029591;28;20417;-87
2022/05/20 08:00:42;;;;;;;3.00;1.30;;;;;;;15.35;100.00;101430.41;5038697;28;20417;-86
2022/05/20 08:04:52;;;;;;;1.80;1.20;;;;;;;15.64;100.00;101434.97;5050546;28;20413;-87
2022/05/20 08:06:03;;;;;;;2.80;1.27;;;;;;;15.64;100.00;101415.78;5050670;28;20424;-87
2022/05/20 08:08:31;;;;;;;4.82;1.30;;;;;;;15.63;100.00;101433.34;5035369;28;20413;-84
2022/05/20 08:11:05;;;;;;;3.50;1.40;;;;;;;15.63;100.00;101438.81;5034415;28;20432;-85
2022/05/20 08:13:33;;;;;;;5.97;1.40;;;;;;;15.70;100.00;101411.03;5032179;28;20766;-85
2022/05/20 08:16:02;;;;;;;4.05;1.40;;;;;;;16.42;100.00;101435.47;5030298;28;20432;-85
2022/05/20 08:18:32;;;;;;;2.38;1.25;;;;;;;16.42;100.00;101427.22;5035066;28;20417;-85
2022/05/20 08:21:00;;;;;;;2.70;1.23;;;;;;;15.98;100.00;101410.06;5030182;28;20414;-86
2022/05/20 08:23:29;;;;;;;3.95;1.40;;;;;;;15.57;100.00;101404.34;5049037;28;20417;-86
2022/05/20 08:26:03;;;;;;;3.13;1.40;;;;;;;15.62;100.00;101435.28;5049478;28;20425;-87
2022/05/20 08:28:32;;;;;;;3.75;1.40;;;;;;;15.46;100.00;101412.72;5045008;28;20421;-83
2022/05/20 08:31:00;;;;;;;3.55;1.40;;;;;;;15.87;100.00;101424.25;5028771;28;20471;-85
2022/05/20 08:33:35;;;;;;;3.33;1.30;;;;;;;15.54;100.00;101422.22;5027738;28;20433;-85
2022/05/20 08:36:04;;;;;;;3.20;1.30;;;;;;;15.48;100.00;101416.00;5033488;28;20426;-87
2022/05/20 08:38:37;;;;;;;3.03;1.30;;;;;;;15.16;100.00;101415.84;5045628;28;20433;-84
2022/05/20 08:41:17;;;;;;;3.65;1.40;;;;;;;15.64;100.00;101419.31;5032175;28;20425;-86
2022/05/20 08:43:45;;;;;;;3.63;1.30;;;;;;;15.68;100.00;101408.56;5027378;28;20421;-83
2022/05/20 08:46:21;;;;;;;1.85;1.23;;;;;;;16.10;100.00;101398.66;5033816;28;20421;-86
2022/05/20 08:48:58;;;;;;;2.63;1.15;;;;;;;16.19;100.00;101412.50;5025326;28;20450;-86
2022/05/20 08:51:33;;;;;;;2.03;1.02;;;;;;;16.01;100.00;101405.91;5042669;28;20418;-87
2022/05/20 08:54:04;;;;;;;3.40;1.30;;;;;;;15.84;100.00;101394.66;5045238;28;21006;-85
2022/05/20 08:56:32;;;;;;;2.60;1.30;;;;;;;15.96;100.00;101371.16;5041811;28;20401;-85
2022/05/20 08:59:04;;;;;;;2.80;1.30;;;;;;;16.18;100.00;101371.59;5032284;28;20416;-87
2022/05/20 09:01:37;;;;;;;4.15;1.30;;;;;;;16.25;100.00;101352.81;5050547;28;20409;-85
2022/05/20 09:04:14;;;;;;;2.60;1.30;;;;;;;16.32;100.00;101364.22;5049302;28;20428;-84
2022/05/20 09:06:59;;;;;;;2.22;1.15;;;;;;;16.45;100.00;101371.66;5024003;28;20425;-85
2022/05/20 09:09:29;;;;;;;2.65;1.40;;;;;;;16.51;100.00;101352.34;5027902;28;20437;-85
2022/05/20 09:12:00;;;;;;;2.63;1.50;;;;;;;17.00;100.00;101350.84;5034979;28;20439;-86
2022/05/20 09:17:22;;;;;;;2.38;1.30;;;;;;;17.47;100.00;101364.44;5038074;28;20784;-85
2022/05/20 09:20:00;;;;;;;2.03;1.17;;;;;;;17.03;100.00;101349.41;5048032;28;20418;-83
2022/05/20 09:22:37;;;;;;;2.50;1.30;;;;;;;17.05;100.00;101358.19;5033311;28;20464;-84
2022/05/20 09:25:21;;;;;;;2.55;1.10;;;;;;;17.03;100.00;101352.16;5037290;28;20413;-85
2022/05/20 09:27:51;;;;;;;2.53;1.20;;;;;;;17.21;100.00;101372.41;5046495;28;20426;-85
2022/05/20 09:30:25;;;;;;;3.55;1.30;;;;;;;16.75;100.00;101371.38;5039133;28;20425;-84
2022/05/20 09:33:16;;;;;;;2.35;1.30;;;;;;;16.96;100.00;101369.09;5049007;28;20425;-85
2022/05/20 09:35:54;;;;;;;2.80;1.27;;;;;;;16.94;100.00;101363.06;5048299;28;20417;-86
2022/05/20 09:38:32;;;;;;;2.95;1.40;;;;;;;17.08;100.00;101341.88;5026872;28;20572;-86
2022/05/20 09:41:09;;;;;;;2.47;1.30;;;;;;;17.40;100.00;101351.09;5020416;28;20515;-84
2022/05/20 09:43:41;;;;;;;2.83;1.10;;;;;;;17.06;100.00;101352.38;5042725;28;20415;-83
2022/05/20 09:46:30;;;;;;;3.60;1.48;;;;;;;16.56;100.00;101342.06;5032567;28;20878;-84
2022/05/20 09:49:05;;;;;;;3.00;1.40;;;;;;;16.71;100.00;101349.22;5025752;28;20417;-85
2022/05/20 09:51:47;;;;;;;2.78;1.13;;;;;;;16.65;100.00;101339.41;5028756;28;20432;-86
2022/05/20 09:54:26;;;;;;;2.88;1.30;;;;;;;17.23;100.00;101354.47;5050127;28;20460;-85
2022/05/20 09:57:07;;;;;;;3.17;1.40;;;;;;;17.05;100.00;101344.44;5048155;28;20507;-83
2022/05/20 09:59:59;;;;;;;4.15;1.50;;;;;;;17.44;100.00;101337.50;5019958;28;20413;-86
2022/05/20 10:02:32;;;;;;;2.00;1.17;;;;;;;17.54;100.00;101352.97;5052953;28;20418;-85
2022/05/20 10:05:10;;;;;;;2.80;1.20;;;;;;;17.64;100.00;101345.28;5049949;28;20750;-85
2022/05/20 10:07:57;;;;;;;3.38;1.38;;;;;;;18.05;100.00;101323.41;5028426;28;20421;-86
2022/05/20 10:10:37;;;;;;;2.83;1.20;;;;;;;17.80;100.00;101295.38;5044696;28;20401;-85
2022/05/20 10:13:23;;;;;;;2.53;1.27;;;;;;;17.58;100.00;101288.75;5027737;28;20414;-84
2022/05/20 10:16:05;;;;;;;3.10;1.40;;;;;;;17.72;100.00;101312.63;5051242;28;20417;-84
2022/05/20 10:18:48;;;;;;;4.07;1.40;;;;;;;17.45;100.00;101301.44;5039355;28;20462;-85
2022/05/20 10:21:49;;;;;;;2.53;1.20;;;;;;;17.45;100.00;101290.41;5028657;28;20515;-87
2022/05/20 10:24:41;;;;;;;3.43;1.40;;;;;;;17.24;100.00;101300.28;5048236;28;20425;-85
2022/05/20 10:27:22;;;;;;;2.35;1.10;;;;;;;17.27;100.00;101285.91;5049108;28;20421;-88
2022/05/20 10:32:50;;;;;;;2.80;1.10;;;;;;;17.13;100.00;101283.19;5054990;28;20410;-86
2022/05/20 10:35:22;;;;;;;2.00;0.98;;;;;;;17.42;100.00;101284.75;5049526;28;21059;-85
2022/05/20 10:38:11;;;;;;;2.58;1.17;;;;;;;17.76;100.00;101289.69;5050712;28;20429;-85
2022/05/20 10:40:50;;;;;;;1.40;1.08;;;;;;;17.63;100.00;101280.34;5046236;28;20442;-85
2022/05/20 10:43:30;;;;;;;3.28;1.20;;;;;;;17.99;100.00;101267.66;5049088;28;20417;-86
2022/05/20 10:49:15;;;;;;;2.42;1.20;;;;;;;18.30;100.00;101269.59;5046099;28;20420;-86
2022/05/20 10:52:03;;;;;;;2.13;1.30;;;;;;;18.17;100.00;101263.88;5051445;28;20826;-86
2022/05/20 10:54:48;;;;;;;2.88;1.27;;;;;;;18.35;100.00;101263.91;5042908;28;20434;-86
2022/05/20 10:57:46;;;;;;;2.65;1.27;;;;;;;18.69;100.00;101289.97;5034557;28;20413;-82
2022/05/20 11:00:22;;;;;;;1.85;1.10;;;;;;;18.28;100.00;101274.59;5031607;28;20426;-86
2022/05/20 11:03:37;;;;;;;2.83;1.20;;;;;;;18.81;100.00;101270.03;5050722;28;20417;-83
2022/05/20 11:06:41;;;;;;;3.00;1.38;;;;;;;18.58;100.00;101270.16;5049284;28;20420;-85
2022/05/20 11:09:22;;;;;;;3.10;1.50;;;;;;;18.15;100.00;101268.88;5024255;28;20418;-83
2022/05/20 11:12:01;;;;;;;2.80;1.38;;;;;;;17.77;100.00;101235.44;5031319;28;20458;-85
2022/05/20 11:15:06;;;;;;;4.13;1.63;;;;;;;18.08;100.00;101237.41;5046006;28;20423;-86
2022/05/20 11:18:07;;;;;;;2.27;1.20;;;;;;;18.20;100.00;101262.41;5035393;28;20440;-86
2022/05/20 11:21:03;;;;;;;3.78;1.50;;;;;;;17.71;100.00;101233.97;5047912;28;20417;-86
2022/05/20 11:24:04;;;;;;;3.67;1.50;;;;;;;18.40;100.00;101232.69;5030811;28;20415;-87
2022/05/20 11:26:52;;;;;;;3.88;1.50;;;;;;;18.51;100.00;101240.31;5031150;28;20417;-85
2022/05/20 11:29:53;;;;;;;2.30;1.40;;;;;;;18.72;100.00;101233.41;5017928;28;20428;-86
2022/05/20 11:32:36;;;;;;;3.28;1.30;;;;;;;18.36;100.00;101218.72;5041165;28;20423;-84
2022/05/20 11:35:24;;;;;;;3.28;1.45;;;;;;;18.10;100.00;101208.41;5049889;28;20413;-86
2022/05/20 11:38:27;;;;;;;3.05;1.42;;;;;;;18.32;100.00;101234.25;5041687;28;20395;-85
2022/05/20 11:41:11;;;;;;;3.80;1.40;;;;;;;18.36;100.00;101216.75;5031700;28;20421;-84
2022/05/20 11:44:00;;;;;;;2.80;1.50;;;;;;;18.62;100.00;101210.50;5043305;28;20406;-86
2022/05/20 11:46:48;;;;;;;2.03;1.30;;;;;;;18.69;100.00;101218.31;5036178;28;20407;-86
2022/05/20 11:49:48;;;;;;;2.17;1.30;;;;;;;18.68;100.00;101231.28;5047688;28;20425;-85
2022/05/20 11:52:45;;;;;;;2.67;1.60;;;;;;;18.33;100.00;101225.66;5031751;28;20426;-85
2022/05/20 11:55:19;;;;;;;3.58;1.50;;;;;;;18.38;100.00;101215.63;5032889;28;20429;-85
2022/05/20 11:57:53;;;;;;;4.15;1.55;;;;;;;18.26;100.00;101222.56;5044480;28;20422;-86
2022/05/20 12:00:23;;;;;;;3.85;1.60;;;;;;;17.86;100.00;101214.28;5033750;28;20421;-84
2022/05/20 12:02:57;;;;;;;3.15;1.70;;;;;;;17.90;100.00;101222.69;5048685;28;20408;-85
2022/05/20 12:05:37;;;;;;;2.88;1.48;;;;;;;17.91;100.00;101202.31;5051833;28;20430;-85
2022/05/20 12:08:11;;;;;;;3.67;1.63;;;;;;;17.99;100.00;101199.63;5049308;28;21182;-84
2022/05/20 12:10:57;;;;;;;3.95;1.50;;;;;;;17.94;100.00;101166.72;5041429;28;20409;-85
2022/05/20 12:13:31;;;;;;;4.25;1.80;;;;;;;18.07;100.00;101150.41;5041219;28;20415;-85
2022/05/20 12:16:13;;;;;;;3.20;1.50;;;;;;;18.28;100.00;101181.72;5030058;28;20423;-86